sensor_id;sensor_type;location;lat;lon;timestamp;temperature;humidity
5881;DHT22;2966;52.598;10.928;2023-02-21T00:02:33;8.40;99.90
5881;DHT22;2966;52.598;10.928;2023-02-21T00:05:17;8.40;99.90
5881;DHT22;2966;52.598;10.928;2023-02-21T00:08:03;8.40;99.90
5881;DHT22;2966;52.598;10.928;2023-02-21T00:10:47;8.50;99.90
5881;DHT22;2966;52.598;10.928;2023-02-21T00:13:35;8.40;99.90
5881;DHT22;2966;52.598;10.928;2023-02-21T00:16:19;8.50;99.90
5881;DHT22;2966;52.598;10.928;2023-02-21T00:19:04;8.50;99.90
5881;DHT22;2966;52.598;10.928;2023-02-21T00:21:49;8.50;99.90
5881;DHT22;2966;52.598;10.928;2023-02-21T00:24:35;8.50;99.90
5881;DHT22;2966;52.598;10.928;2023-02-21T00:27:19;8.50;99.90
5881;DHT22;2966;52.598;10.928;2023-02-21T00:30:05;8.50;99.90
5881;DHT22;2966;52.598;10.928;2023-02-21T00:32:50;8.50;99.90
5881;DHT22;2966;52.598;10.928;2023-02-21T00:35:34;8.50;99.90
5881;DHT22;2966;52.598;10.928;2023-02-21T00:38:19;8.50;99.90
5881;DHT22;2966;52.598;10.928;2023-02-21T00:41:04;8.50;99.90
5881;DHT22;2966;52.598;10.928;2023-02-21T00:43:48;8.50;99.90
5881;DHT22;2966;52.598;10.928;2023-02-21T00:46:32;8.50;99.90
5881;DHT22;2966;52.598;10.928;2023-02-21T00:49:17;8.50;99.90
5881;DHT22;2966;52.598;10.928;2023-02-21T00:52:01;8.50;99.90
5881;DHT22;2966;52.598;10.928;2023-02-21T00:54:45;8.50;99.90
5881;DHT22;2966;52.598;10.928;2023-02-21T00:57:31;8.50;99.90
5881;DHT22;2966;52.598;10.928;2023-02-21T01:00:17;8.50;99.90
5881;DHT22;2966;52.598;10.928;2023-02-21T01:03:01;8.50;99.90
5881;DHT22;2966;52.598;10.928;2023-02-21T01:05:46;8.40;99.90
5881;DHT22;2966;52.598;10.928;2023-02-21T01:08:30;8.50;99.90
5881;DHT22;2966;52.598;10.928;2023-02-21T01:11:15;8.50;99.90
5881;DHT22;2966;52.598;10.928;2023-02-21T01:14:03;8.60;99.90
5881;DHT22;2966;52.598;10.928;2023-02-21T01:16:47;8.50;99.90
5881;DHT22;2966;52.598;10.928;2023-02-21T01:19:32;8.50;99.90
5881;DHT22;2966;52.598;10.928;2023-02-21T01:22:16;8.60;99.90
5881;DHT22;2966;52.598;10.928;2023-02-21T01:25:00;8.60;99.90
5881;DHT22;2966;52.598;10.928;2023-02-21T01:27:44;8.60;99.90
5881;DHT22;2966;52.598;10.928;2023-02-21T01:30:30;8.70;99.90
5881;DHT22;2966;52.598;10.928;2023-02-21T01:33:17;8.60;99.90
5881;DHT22;2966;52.598;10.928;2023-02-21T01:36:03;8.60;99.90
5881;DHT22;2966;52.598;10.928;2023-02-21T01:38:47;8.60;99.90
5881;DHT22;2966;52.598;10.928;2023-02-21T01:41:34;8.60;99.90
5881;DHT22;2966;52.598;10.928;2023-02-21T01:44:33;8.60;99.90
5881;DHT22;2966;52.598;10.928;2023-02-21T01:47:19;8.50;99.90
5881;DHT22;2966;52.598;10.928;2023-02-21T01:50:08;8.60;99.90
5881;DHT22;2966;52.598;10.928;2023-02-21T01:52:54;8.60;99.90
5881;DHT22;2966;52.598;10.928;2023-02-21T01:55:41;8.60;99.90
5881;DHT22;2966;52.598;10.928;2023-02-21T01:58:28;8.60;99.90
5881;DHT22;2966;52.598;10.928;2023-02-21T02:01:20;8.60;99.90
5881;DHT22;2966;52.598;10.928;2023-02-21T02:04:08;8.60;99.90
5881;DHT22;2966;52.598;10.928;2023-02-21T02:06:52;8.60;99.90
5881;DHT22;2966;52.598;10.928;2023-02-21T02:09:37;8.60;99.90
5881;DHT22;2966;52.598;10.928;2023-02-21T02:12:35;8.60;99.90
5881;DHT22;2966;52.598;10.928;2023-02-21T02:18:19;8.60;99.90
5881;DHT22;2966;52.598;10.928;2023-02-21T02:21:10;8.60;99.90
5881;DHT22;2966;52.598;10.928;2023-02-21T02:26:57;8.50;99.90
5881;DHT22;2966;52.598;10.928;2023-02-21T02:29:56;8.60;99.90
5881;DHT22;2966;52.598;10.928;2023-02-21T02:32:41;8.60;99.90
5881;DHT22;2966;52.598;10.928;2023-02-21T02:35:12;8.60;99.90
5881;DHT22;2966;52.598;10.928;2023-02-21T02:37:48;8.50;99.90
5881;DHT22;2966;52.598;10.928;2023-02-21T02:40:21;8.50;99.90
5881;DHT22;2966;52.598;10.928;2023-02-21T02:43:00;8.50;99.90
5881;DHT22;2966;52.598;10.928;2023-02-21T02:45:32;8.50;99.90
5881;DHT22;2966;52.598;10.928;2023-02-21T02:48:06;8.50;99.90
5881;DHT22;2966;52.598;10.928;2023-02-21T02:50:37;8.50;99.90
5881;DHT22;2966;52.598;10.928;2023-02-21T02:53:04;8.50;99.90
5881;DHT22;2966;52.598;10.928;2023-02-21T02:55:36;8.50;99.90
5881;DHT22;2966;52.598;10.928;2023-02-21T02:58:05;8.50;99.90
5881;DHT22;2966;52.598;10.928;2023-02-21T03:00:34;8.50;99.90
5881;DHT22;2966;52.598;10.928;2023-02-21T03:03:34;8.50;99.90
5881;DHT22;2966;52.598;10.928;2023-02-21T03:06:12;8.50;99.90
5881;DHT22;2966;52.598;10.928;2023-02-21T03:08:51;8.50;99.90
5881;DHT22;2966;52.598;10.928;2023-02-21T03:11:23;8.50;99.90
5881;DHT22;2966;52.598;10.928;2023-02-21T03:13:52;8.60;99.90
5881;DHT22;2966;52.598;10.928;2023-02-21T03:16:26;8.60;99.90
5881;DHT22;2966;52.598;10.928;2023-02-21T03:18:57;8.60;99.90
5881;DHT22;2966;52.598;10.928;2023-02-21T03:21:28;8.60;99.90
5881;DHT22;2966;52.598;10.928;2023-02-21T03:23:59;8.60;99.90
5881;DHT22;2966;52.598;10.928;2023-02-21T03:26:30;8.50;99.90
5881;DHT22;2966;52.598;10.928;2023-02-21T03:28:58;8.60;99.90
5881;DHT22;2966;52.598;10.928;2023-02-21T03:31:31;8.60;99.90
5881;DHT22;2966;52.598;10.928;2023-02-21T03:33:58;8.60;99.90
5881;DHT22;2966;52.598;10.928;2023-02-21T03:36:27;8.60;99.90
5881;DHT22;2966;52.598;10.928;2023-02-21T03:38:54;8.60;99.90
5881;DHT22;2966;52.598;10.928;2023-02-21T03:41:21;8.60;99.90
5881;DHT22;2966;52.598;10.928;2023-02-21T03:43:47;8.60;99.90
5881;DHT22;2966;52.598;10.928;2023-02-21T03:46:14;8.60;99.90
5881;DHT22;2966;52.598;10.928;2023-02-21T03:48:41;8.60;99.90
5881;DHT22;2966;52.598;10.928;2023-02-21T03:51:08;8.60;99.90
5881;DHT22;2966;52.598;10.928;2023-02-21T03:53:36;8.60;99.90
5881;DHT22;2966;52.598;10.928;2023-02-21T03:56:03;8.60;99.90
5881;DHT22;2966;52.598;10.928;2023-02-21T03:58:30;8.60;99.90
5881;DHT22;2966;52.598;10.928;2023-02-21T04:00:56;8.50;99.90
5881;DHT22;2966;52.598;10.928;2023-02-21T04:03:23;8.50;99.90
5881;DHT22;2966;52.598;10.928;2023-02-21T04:05:50;8.50;99.90
5881;DHT22;2966;52.598;10.928;2023-02-21T04:08:16;8.50;99.90
5881;DHT22;2966;52.598;10.928;2023-02-21T04:10:44;8.50;99.90
5881;DHT22;2966;52.598;10.928;2023-02-21T04:13:11;8.50;99.90
5881;DHT22;2966;52.598;10.928;2023-02-21T04:15:41;8.50;99.90
5881;DHT22;2966;52.598;10.928;2023-02-21T04:18:08;8.50;99.90
5881;DHT22;2966;52.598;10.928;2023-02-21T04:20:37;8.50;99.90
5881;DHT22;2966;52.598;10.928;2023-02-21T04:23:04;8.50;99.90
5881;DHT22;2966;52.598;10.928;2023-02-21T04:25:33;8.50;99.90
5881;DHT22;2966;52.598;10.928;2023-02-21T04:28:01;8.60;99.90
5881;DHT22;2966;52.598;10.928;2023-02-21T04:30:28;8.60;99.90
5881;DHT22;2966;52.598;10.928;2023-02-21T04:32:56;8.60;99.90
5881;DHT22;2966;52.598;10.928;2023-02-21T04:35:23;8.60;99.90
5881;DHT22;2966;52.598;10.928;2023-02-21T04:37:50;8.60;99.90
5881;DHT22;2966;52.598;10.928;2023-02-21T04:40:17;8.60;99.90
5881;DHT22;2966;52.598;10.928;2023-02-21T04:42:43;8.70;99.90
5881;DHT22;2966;52.598;10.928;2023-02-21T04:45:12;8.70;99.90
5881;DHT22;2966;52.598;10.928;2023-02-21T04:47:39;8.70;99.90
5881;DHT22;2966;52.598;10.928;2023-02-21T04:50:06;8.60;99.90
5881;DHT22;2966;52.598;10.928;2023-02-21T04:52:33;8.70;99.90
5881;DHT22;2966;52.598;10.928;2023-02-21T04:54:59;8.70;99.90
5881;DHT22;2966;52.598;10.928;2023-02-21T04:57:26;8.70;99.90
5881;DHT22;2966;52.598;10.928;2023-02-21T04:59:56;8.60;99.90
5881;DHT22;2966;52.598;10.928;2023-02-21T05:02:25;8.60;99.90
5881;DHT22;2966;52.598;10.928;2023-02-21T05:04:52;8.60;99.90
5881;DHT22;2966;52.598;10.928;2023-02-21T05:07:21;8.60;99.90
5881;DHT22;2966;52.598;10.928;2023-02-21T05:09:48;8.60;99.90
5881;DHT22;2966;52.598;10.928;2023-02-21T05:12:15;8.60;99.90
5881;DHT22;2966;52.598;10.928;2023-02-21T05:14:41;8.60;99.90
5881;DHT22;2966;52.598;10.928;2023-02-21T05:17:09;8.60;99.90
5881;DHT22;2966;52.598;10.928;2023-02-21T05:19:37;8.60;99.90
5881;DHT22;2966;52.598;10.928;2023-02-21T05:22:04;8.50;99.90
5881;DHT22;2966;52.598;10.928;2023-02-21T05:24:32;8.60;99.90
5881;DHT22;2966;52.598;10.928;2023-02-21T05:26:59;8.60;99.90
5881;DHT22;2966;52.598;10.928;2023-02-21T05:29:26;8.50;99.90
5881;DHT22;2966;52.598;10.928;2023-02-21T05:31:53;8.50;99.90
5881;DHT22;2966;52.598;10.928;2023-02-21T05:34:20;8.60;99.90
5881;DHT22;2966;52.598;10.928;2023-02-21T05:36:48;8.50;99.90
5881;DHT22;2966;52.598;10.928;2023-02-21T05:39:14;8.50;99.90
5881;DHT22;2966;52.598;10.928;2023-02-21T05:41:46;8.60;99.90
5881;DHT22;2966;52.598;10.928;2023-02-21T05:44:13;8.60;99.90
5881;DHT22;2966;52.598;10.928;2023-02-21T05:46:40;8.60;99.90
5881;DHT22;2966;52.598;10.928;2023-02-21T05:49:06;8.60;99.90
5881;DHT22;2966;52.598;10.928;2023-02-21T05:51:34;8.60;99.90
5881;DHT22;2966;52.598;10.928;2023-02-21T05:54:04;8.60;99.90
5881;DHT22;2966;52.598;10.928;2023-02-21T05:56:36;8.50;99.90
5881;DHT22;2966;52.598;10.928;2023-02-21T05:59:06;8.60;99.90
5881;DHT22;2966;52.598;10.928;2023-02-21T06:01:33;8.50;99.90
5881;DHT22;2966;52.598;10.928;2023-02-21T06:04:03;8.50;99.90
5881;DHT22;2966;52.598;10.928;2023-02-21T06:06:32;8.50;99.90
5881;DHT22;2966;52.598;10.928;2023-02-21T06:08:59;8.50;99.90
5881;DHT22;2966;52.598;10.928;2023-02-21T06:11:28;8.50;99.90
5881;DHT22;2966;52.598;10.928;2023-02-21T06:13:57;8.50;99.90
5881;DHT22;2966;52.598;10.928;2023-02-21T06:16:24;8.50;99.90
5881;DHT22;2966;52.598;10.928;2023-02-21T06:18:52;8.50;99.90
5881;DHT22;2966;52.598;10.928;2023-02-21T06:21:19;8.50;99.90
5881;DHT22;2966;52.598;10.928;2023-02-21T06:23:46;8.50;99.90
5881;DHT22;2966;52.598;10.928;2023-02-21T06:26:13;8.50;99.90
5881;DHT22;2966;52.598;10.928;2023-02-21T06:28:42;8.50;99.90
5881;DHT22;2966;52.598;10.928;2023-02-21T06:31:09;8.50;99.90
5881;DHT22;2966;52.598;10.928;2023-02-21T06:33:35;8.40;99.90
5881;DHT22;2966;52.598;10.928;2023-02-21T06:36:04;8.40;99.90
5881;DHT22;2966;52.598;10.928;2023-02-21T06:38:31;8.50;99.90
5881;DHT22;2966;52.598;10.928;2023-02-21T06:40:58;8.40;99.90
5881;DHT22;2966;52.598;10.928;2023-02-21T06:43:25;8.50;99.90
5881;DHT22;2966;52.598;10.928;2023-02-21T06:45:53;8.40;99.90
5881;DHT22;2966;52.598;10.928;2023-02-21T06:48:19;8.40;99.90
5881;DHT22;2966;52.598;10.928;2023-02-21T06:50:46;8.50;99.90
5881;DHT22;2966;52.598;10.928;2023-02-21T06:53:13;8.50;99.90
5881;DHT22;2966;52.598;10.928;2023-02-21T06:55:40;8.50;99.90
5881;DHT22;2966;52.598;10.928;2023-02-21T06:58:06;8.50;99.90
5881;DHT22;2966;52.598;10.928;2023-02-21T07:00:33;8.50;99.90
5881;DHT22;2966;52.598;10.928;2023-02-21T07:03:01;8.50;99.90
5881;DHT22;2966;52.598;10.928;2023-02-21T07:05:28;8.50;99.90
5881;DHT22;2966;52.598;10.928;2023-02-21T07:07:59;8.50;99.90
5881;DHT22;2966;52.598;10.928;2023-02-21T07:10:26;8.50;99.90
5881;DHT22;2966;52.598;10.928;2023-02-21T07:12:52;8.50;99.90
5881;DHT22;2966;52.598;10.928;2023-02-21T07:15:19;8.60;99.90
5881;DHT22;2966;52.598;10.928;2023-02-21T07:17:46;8.60;99.90
5881;DHT22;2966;52.598;10.928;2023-02-21T07:20:14;8.60;99.90
5881;DHT22;2966;52.598;10.928;2023-02-21T07:22:40;8.60;99.90
5881;DHT22;2966;52.598;10.928;2023-02-21T07:25:07;8.60;99.90
5881;DHT22;2966;52.598;10.928;2023-02-21T07:27:34;8.60;99.90
5881;DHT22;2966;52.598;10.928;2023-02-21T07:30:00;8.60;99.90
5881;DHT22;2966;52.598;10.928;2023-02-21T07:32:27;8.60;99.90
5881;DHT22;2966;52.598;10.928;2023-02-21T07:34:54;8.60;99.90
5881;DHT22;2966;52.598;10.928;2023-02-21T07:37:22;8.60;99.90
5881;DHT22;2966;52.598;10.928;2023-02-21T07:39:49;8.60;99.90
5881;DHT22;2966;52.598;10.928;2023-02-21T07:42:18;8.60;99.90
5881;DHT22;2966;52.598;10.928;2023-02-21T07:44:44;8.60;99.90
5881;DHT22;2966;52.598;10.928;2023-02-21T07:47:12;8.60;99.90
5881;DHT22;2966;52.598;10.928;2023-02-21T07:49:40;8.60;99.90
5881;DHT22;2966;52.598;10.928;2023-02-21T07:52:07;8.60;99.90
5881;DHT22;2966;52.598;10.928;2023-02-21T07:54:37;8.60;99.90
5881;DHT22;2966;52.598;10.928;2023-02-21T07:57:04;8.70;99.90
5881;DHT22;2966;52.598;10.928;2023-02-21T07:59:31;8.70;99.90
5881;DHT22;2966;52.598;10.928;2023-02-21T08:01:58;8.70;99.90
5881;DHT22;2966;52.598;10.928;2023-02-21T08:04:25;8.70;99.90
5881;DHT22;2966;52.598;10.928;2023-02-21T08:06:57;8.70;99.90
5881;DHT22;2966;52.598;10.928;2023-02-21T08:09:27;8.70;99.90
5881;DHT22;2966;52.598;10.928;2023-02-21T08:11:55;8.70;99.90
5881;DHT22;2966;52.598;10.928;2023-02-21T08:14:21;8.70;99.90
5881;DHT22;2966;52.598;10.928;2023-02-21T08:16:48;8.70;99.90
5881;DHT22;2966;52.598;10.928;2023-02-21T08:19:15;8.70;99.90
5881;DHT22;2966;52.598;10.928;2023-02-21T08:21:44;8.70;99.90
5881;DHT22;2966;52.598;10.928;2023-02-21T08:24:12;8.70;99.90
5881;DHT22;2966;52.598;10.928;2023-02-21T08:26:39;8.70;99.90
5881;DHT22;2966;52.598;10.928;2023-02-21T08:29:08;8.70;99.90
5881;DHT22;2966;52.598;10.928;2023-02-21T08:31:36;8.70;99.90
5881;DHT22;2966;52.598;10.928;2023-02-21T08:34:07;8.70;99.90
5881;DHT22;2966;52.598;10.928;2023-02-21T08:36:35;8.70;99.90
5881;DHT22;2966;52.598;10.928;2023-02-21T08:39:03;8.70;99.90
5881;DHT22;2966;52.598;10.928;2023-02-21T08:41:35;8.70;99.90
5881;DHT22;2966;52.598;10.928;2023-02-21T08:44:03;8.70;99.90
5881;DHT22;2966;52.598;10.928;2023-02-21T08:46:31;8.70;99.90
5881;DHT22;2966;52.598;10.928;2023-02-21T08:48:57;8.70;99.90
5881;DHT22;2966;52.598;10.928;2023-02-21T08:51:24;8.80;99.90
5881;DHT22;2966;52.598;10.928;2023-02-21T08:53:51;8.80;99.90
5881;DHT22;2966;52.598;10.928;2023-02-21T08:56:21;8.70;99.90
5881;DHT22;2966;52.598;10.928;2023-02-21T08:58:48;8.80;99.90
5881;DHT22;2966;52.598;10.928;2023-02-21T09:01:15;8.80;99.90
5881;DHT22;2966;52.598;10.928;2023-02-21T09:03:46;8.80;99.90
5881;DHT22;2966;52.598;10.928;2023-02-21T09:06:13;8.80;99.90
5881;DHT22;2966;52.598;10.928;2023-02-21T09:08:40;8.80;99.90
5881;DHT22;2966;52.598;10.928;2023-02-21T09:11:10;8.80;99.90
5881;DHT22;2966;52.598;10.928;2023-02-21T09:13:36;8.80;99.90
5881;DHT22;2966;52.598;10.928;2023-02-21T09:16:04;8.80;99.90
5881;DHT22;2966;52.598;10.928;2023-02-21T09:18:31;8.80;99.90
5881;DHT22;2966;52.598;10.928;2023-02-21T09:20:59;8.80;99.90
5881;DHT22;2966;52.598;10.928;2023-02-21T09:23:28;8.80;99.90
5881;DHT22;2966;52.598;10.928;2023-02-21T09:25:58;8.90;99.90
5881;DHT22;2966;52.598;10.928;2023-02-21T09:28:25;8.90;99.90
5881;DHT22;2966;52.598;10.928;2023-02-21T09:30:53;8.90;99.90
5881;DHT22;2966;52.598;10.928;2023-02-21T09:33:20;8.90;99.90
5881;DHT22;2966;52.598;10.928;2023-02-21T09:35:47;8.90;99.90
5881;DHT22;2966;52.598;10.928;2023-02-21T09:38:16;9.00;99.90
5881;DHT22;2966;52.598;10.928;2023-02-21T09:40:45;9.00;99.90
5881;DHT22;2966;52.598;10.928;2023-02-21T09:43:18;8.90;99.90
5881;DHT22;2966;52.598;10.928;2023-02-21T09:45:47;8.90;99.90
5881;DHT22;2966;52.598;10.928;2023-02-21T09:48:17;9.00;99.90
5881;DHT22;2966;52.598;10.928;2023-02-21T09:50:48;9.00;99.90
5881;DHT22;2966;52.598;10.928;2023-02-21T09:53:21;9.10;99.90
5881;DHT22;2966;52.598;10.928;2023-02-21T09:55:49;9.00;99.90
5881;DHT22;2966;52.598;10.928;2023-02-21T09:58:18;9.00;99.90
5881;DHT22;2966;52.598;10.928;2023-02-21T10:00:46;9.00;99.90
5881;DHT22;2966;52.598;10.928;2023-02-21T10:03:34;9.00;99.90
5881;DHT22;2966;52.598;10.928;2023-02-21T10:06:15;9.10;99.90
5881;DHT22;2966;52.598;10.928;2023-02-21T10:08:49;9.10;99.90
5881;DHT22;2966;52.598;10.928;2023-02-21T10:11:30;9.10;99.90
5881;DHT22;2966;52.598;10.928;2023-02-21T10:14:05;9.00;99.90
5881;DHT22;2966;52.598;10.928;2023-02-21T10:16:39;9.00;99.90
5881;DHT22;2966;52.598;10.928;2023-02-21T10:19:16;9.00;99.90
5881;DHT22;2966;52.598;10.928;2023-02-21T10:21:47;9.00;99.90
5881;DHT22;2966;52.598;10.928;2023-02-21T10:24:18;9.00;99.90
5881;DHT22;2966;52.598;10.928;2023-02-21T10:26:52;9.00;99.90
5881;DHT22;2966;52.598;10.928;2023-02-21T10:29:21;9.00;99.90
5881;DHT22;2966;52.598;10.928;2023-02-21T10:31:54;9.00;99.90
5881;DHT22;2966;52.598;10.928;2023-02-21T10:34:24;9.00;99.90
5881;DHT22;2966;52.598;10.928;2023-02-21T10:36:53;9.00;99.90
5881;DHT22;2966;52.598;10.928;2023-02-21T10:39:27;9.00;99.90
5881;DHT22;2966;52.598;10.928;2023-02-21T10:41:57;9.10;99.90
5881;DHT22;2966;52.598;10.928;2023-02-21T10:44:28;9.10;99.90
5881;DHT22;2966;52.598;10.928;2023-02-21T10:47:00;9.10;99.90
5881;DHT22;2966;52.598;10.928;2023-02-21T10:49:31;9.10;99.90
5881;DHT22;2966;52.598;10.928;2023-02-21T10:52:05;9.00;99.90
5881;DHT22;2966;52.598;10.928;2023-02-21T10:54:36;9.10;99.90
5881;DHT22;2966;52.598;10.928;2023-02-21T10:57:05;9.10;99.90
5881;DHT22;2966;52.598;10.928;2023-02-21T10:59:34;9.10;99.90
5881;DHT22;2966;52.598;10.928;2023-02-21T11:02:02;9.00;99.90
5881;DHT22;2966;52.598;10.928;2023-02-21T11:04:48;9.00;99.90
5881;DHT22;2966;52.598;10.928;2023-02-21T11:07:16;9.00;99.90
5881;DHT22;2966;52.598;10.928;2023-02-21T11:09:46;9.00;99.90
5881;DHT22;2966;52.598;10.928;2023-02-21T11:12:19;9.00;99.90
5881;DHT22;2966;52.598;10.928;2023-02-21T11:15:05;9.10;99.90
5881;DHT22;2966;52.598;10.928;2023-02-21T11:17:33;9.20;99.90
5881;DHT22;2966;52.598;10.928;2023-02-21T11:20:03;9.20;99.90
5881;DHT22;2966;52.598;10.928;2023-02-21T11:22:38;9.20;99.90
5881;DHT22;2966;52.598;10.928;2023-02-21T11:25:17;9.20;99.90
5881;DHT22;2966;52.598;10.928;2023-02-21T11:28:00;9.20;99.90
5881;DHT22;2966;52.598;10.928;2023-02-21T11:30:28;9.20;99.90
5881;DHT22;2966;52.598;10.928;2023-02-21T11:32:57;9.20;99.90
5881;DHT22;2966;52.598;10.928;2023-02-21T11:35:27;9.20;99.90
5881;DHT22;2966;52.598;10.928;2023-02-21T11:37:56;9.20;99.90
5881;DHT22;2966;52.598;10.928;2023-02-21T11:40:28;9.20;99.90
5881;DHT22;2966;52.598;10.928;2023-02-21T11:43:17;9.20;99.90
5881;DHT22;2966;52.598;10.928;2023-02-21T11:45:55;9.20;99.90
5881;DHT22;2966;52.598;10.928;2023-02-21T11:48:27;9.20;99.90
5881;DHT22;2966;52.598;10.928;2023-02-21T11:50:59;9.10;99.90
5881;DHT22;2966;52.598;10.928;2023-02-21T11:53:33;9.20;99.90
5881;DHT22;2966;52.598;10.928;2023-02-21T11:56:27;9.10;99.90
5881;DHT22;2966;52.598;10.928;2023-02-21T11:59:02;9.10;99.90
5881;DHT22;2966;52.598;10.928;2023-02-21T12:01:36;9.10;99.90
5881;DHT22;2966;52.598;10.928;2023-02-21T12:04:25;9.10;99.90
5881;DHT22;2966;52.598;10.928;2023-02-21T12:07:02;9.10;99.90
5881;DHT22;2966;52.598;10.928;2023-02-21T12:09:37;9.10;99.90
5881;DHT22;2966;52.598;10.928;2023-02-21T12:12:17;9.10;99.90
5881;DHT22;2966;52.598;10.928;2023-02-21T12:17:52;9.10;99.90
5881;DHT22;2966;52.598;10.928;2023-02-21T12:20:43;9.10;99.90
5881;DHT22;2966;52.598;10.928;2023-02-21T12:23:21;9.10;99.90
5881;DHT22;2966;52.598;10.928;2023-02-21T12:25:59;9.20;99.90
5881;DHT22;2966;52.598;10.928;2023-02-21T12:28:41;9.20;99.90
5881;DHT22;2966;52.598;10.928;2023-02-21T12:31:26;9.30;99.90
5881;DHT22;2966;52.598;10.928;2023-02-21T12:34:05;9.30;99.90
5881;DHT22;2966;52.598;10.928;2023-02-21T12:36:51;9.30;99.90
5881;DHT22;2966;52.598;10.928;2023-02-21T12:39:32;9.30;99.90
5881;DHT22;2966;52.598;10.928;2023-02-21T12:42:25;9.30;99.90
5881;DHT22;2966;52.598;10.928;2023-02-21T12:45:03;9.40;99.90
5881;DHT22;2966;52.598;10.928;2023-02-21T12:47:40;9.30;99.90
5881;DHT22;2966;52.598;10.928;2023-02-21T12:50:15;9.40;99.90
5881;DHT22;2966;52.598;10.928;2023-02-21T12:52:51;9.40;99.90
5881;DHT22;2966;52.598;10.928;2023-02-21T12:55:25;9.40;99.90
5881;DHT22;2966;52.598;10.928;2023-02-21T12:57:57;9.40;99.90
5881;DHT22;2966;52.598;10.928;2023-02-21T13:00:31;9.50;99.90
5881;DHT22;2966;52.598;10.928;2023-02-21T13:03:07;9.60;99.90
5881;DHT22;2966;52.598;10.928;2023-02-21T13:05:40;9.70;99.90
5881;DHT22;2966;52.598;10.928;2023-02-21T13:08:14;9.70;99.90
5881;DHT22;2966;52.598;10.928;2023-02-21T13:10:51;9.70;99.90
5881;DHT22;2966;52.598;10.928;2023-02-21T13:13:21;9.70;99.90
5881;DHT22;2966;52.598;10.928;2023-02-21T13:15:51;9.70;99.90
5881;DHT22;2966;52.598;10.928;2023-02-21T13:18:22;9.80;99.90
5881;DHT22;2966;52.598;10.928;2023-02-21T13:20:55;9.80;99.90
5881;DHT22;2966;52.598;10.928;2023-02-21T13:23:23;9.80;99.90
5881;DHT22;2966;52.598;10.928;2023-02-21T13:26:21;9.70;99.90
5881;DHT22;2966;52.598;10.928;2023-02-21T13:28:53;9.80;99.90
5881;DHT22;2966;52.598;10.928;2023-02-21T13:31:24;9.80;99.90
5881;DHT22;2966;52.598;10.928;2023-02-21T13:33:54;9.80;99.90
5881;DHT22;2966;52.598;10.928;2023-02-21T13:36:25;9.80;99.90
5881;DHT22;2966;52.598;10.928;2023-02-21T13:39:02;9.80;99.90
5881;DHT22;2966;52.598;10.928;2023-02-21T13:41:33;9.80;99.90
5881;DHT22;2966;52.598;10.928;2023-02-21T13:44:05;9.80;99.90
5881;DHT22;2966;52.598;10.928;2023-02-21T13:47:01;9.80;99.90
5881;DHT22;2966;52.598;10.928;2023-02-21T13:49:45;9.90;99.90
5881;DHT22;2966;52.598;10.928;2023-02-21T13:55:29;10.00;99.90
5881;DHT22;2966;52.598;10.928;2023-02-21T13:58:31;10.00;99.90
5881;DHT22;2966;52.598;10.928;2023-02-21T14:01:40;10.10;99.90
5881;DHT22;2966;52.598;10.928;2023-02-21T14:07:45;10.30;99.90
5881;DHT22;2966;52.598;10.928;2023-02-21T14:10:20;10.30;99.90
5881;DHT22;2966;52.598;10.928;2023-02-21T14:12:54;10.40;99.90
5881;DHT22;2966;52.598;10.928;2023-02-21T14:15:22;10.30;99.90
5881;DHT22;2966;52.598;10.928;2023-02-21T14:17:50;10.40;99.90
5881;DHT22;2966;52.598;10.928;2023-02-21T14:20:20;10.40;99.90
5881;DHT22;2966;52.598;10.928;2023-02-21T14:22:50;10.50;99.90
5881;DHT22;2966;52.598;10.928;2023-02-21T14:25:20;10.60;99.90
5881;DHT22;2966;52.598;10.928;2023-02-21T14:27:48;10.60;99.90
5881;DHT22;2966;52.598;10.928;2023-02-21T14:30:25;10.50;99.90
5881;DHT22;2966;52.598;10.928;2023-02-21T14:32:54;10.60;99.90
5881;DHT22;2966;52.598;10.928;2023-02-21T14:35:27;10.60;99.90
5881;DHT22;2966;52.598;10.928;2023-02-21T14:37:59;10.60;99.90
5881;DHT22;2966;52.598;10.928;2023-02-21T14:40:33;10.60;99.90
5881;DHT22;2966;52.598;10.928;2023-02-21T14:43:27;10.50;99.90
5881;DHT22;2966;52.598;10.928;2023-02-21T14:46:11;10.50;99.90
5881;DHT22;2966;52.598;10.928;2023-02-21T14:48:53;10.50;99.90
5881;DHT22;2966;52.598;10.928;2023-02-21T14:51:51;10.40;99.90
5881;DHT22;2966;52.598;10.928;2023-02-21T14:54:57;10.40;99.90
5881;DHT22;2966;52.598;10.928;2023-02-21T14:57:50;10.40;99.90
5881;DHT22;2966;52.598;10.928;2023-02-21T15:00:24;10.40;99.90
5881;DHT22;2966;52.598;10.928;2023-02-21T15:02:57;10.40;99.90
5881;DHT22;2966;52.598;10.928;2023-02-21T15:05:30;10.40;99.90
5881;DHT22;2966;52.598;10.928;2023-02-21T15:08:05;10.40;99.90
5881;DHT22;2966;52.598;10.928;2023-02-21T15:10:39;10.40;99.90
5881;DHT22;2966;52.598;10.928;2023-02-21T15:13:20;10.40;99.90
5881;DHT22;2966;52.598;10.928;2023-02-21T15:15:54;10.40;99.90
5881;DHT22;2966;52.598;10.928;2023-02-21T15:18:26;10.30;99.90
5881;DHT22;2966;52.598;10.928;2023-02-21T15:21:06;10.30;99.90
5881;DHT22;2966;52.598;10.928;2023-02-21T15:23:33;10.20;99.90
5881;DHT22;2966;52.598;10.928;2023-02-21T15:26:16;10.20;99.90
5881;DHT22;2966;52.598;10.928;2023-02-21T15:28:43;10.20;99.90
5881;DHT22;2966;52.598;10.928;2023-02-21T15:31:11;10.10;99.90
5881;DHT22;2966;52.598;10.928;2023-02-21T15:33:40;10.10;99.90
5881;DHT22;2966;52.598;10.928;2023-02-21T15:36:14;10.10;99.90
5881;DHT22;2966;52.598;10.928;2023-02-21T15:38:44;10.00;99.90
5881;DHT22;2966;52.598;10.928;2023-02-21T15:41:25;10.00;99.90
5881;DHT22;2966;52.598;10.928;2023-02-21T15:43:57;10.00;99.90
5881;DHT22;2966;52.598;10.928;2023-02-21T15:46:29;10.00;99.90
5881;DHT22;2966;52.598;10.928;2023-02-21T15:49:00;9.90;99.90
5881;DHT22;2966;52.598;10.928;2023-02-21T15:51:27;9.90;99.90
5881;DHT22;2966;52.598;10.928;2023-02-21T15:54:20;9.90;99.90
5881;DHT22;2966;52.598;10.928;2023-02-21T15:56:59;9.90;99.90
5881;DHT22;2966;52.598;10.928;2023-02-21T15:59:27;9.90;99.90
5881;DHT22;2966;52.598;10.928;2023-02-21T16:02:13;9.90;99.90
5881;DHT22;2966;52.598;10.928;2023-02-21T16:04:42;9.90;99.90
5881;DHT22;2966;52.598;10.928;2023-02-21T16:07:16;9.90;99.90
5881;DHT22;2966;52.598;10.928;2023-02-21T16:09:45;9.90;99.90
5881;DHT22;2966;52.598;10.928;2023-02-21T16:12:33;9.90;99.90
5881;DHT22;2966;52.598;10.928;2023-02-21T16:15:03;9.90;99.90
5881;DHT22;2966;52.598;10.928;2023-02-21T16:17:34;9.80;99.90
5881;DHT22;2966;52.598;10.928;2023-02-21T16:20:16;9.80;99.90
5881;DHT22;2966;52.598;10.928;2023-02-21T16:22:44;9.80;99.90
5881;DHT22;2966;52.598;10.928;2023-02-21T16:25:18;9.80;99.90
5881;DHT22;2966;52.598;10.928;2023-02-21T16:27:48;9.80;99.90
5881;DHT22;2966;52.598;10.928;2023-02-21T16:30:17;9.70;99.90
5881;DHT22;2966;52.598;10.928;2023-02-21T16:32:45;9.70;99.90
5881;DHT22;2966;52.598;10.928;2023-02-21T16:35:16;9.70;99.90
5881;DHT22;2966;52.598;10.928;2023-02-21T16:37:45;9.60;99.90
5881;DHT22;2966;52.598;10.928;2023-02-21T16:40:14;9.70;99.90
5881;DHT22;2966;52.598;10.928;2023-02-21T16:42:41;9.60;99.90
5881;DHT22;2966;52.598;10.928;2023-02-21T16:45:09;9.70;99.90
5881;DHT22;2966;52.598;10.928;2023-02-21T16:47:35;9.60;99.90
5881;DHT22;2966;52.598;10.928;2023-02-21T16:50:02;9.60;99.90
5881;DHT22;2966;52.598;10.928;2023-02-21T16:52:29;9.50;99.90
5881;DHT22;2966;52.598;10.928;2023-02-21T16:54:55;9.50;99.90
5881;DHT22;2966;52.598;10.928;2023-02-21T16:57:23;9.50;99.90